createdAt,value
2022-10-19T00:00:33.673Z,99553.38
2022-10-19T00:03:23.131Z,99546.34
2022-10-19T00:05:51.400Z,99547.06
2022-10-19T00:08:18.137Z,99542.16
2022-10-19T00:10:45.105Z,99539.19
2022-10-19T00:13:11.872Z,99538.34
2022-10-19T00:15:40.324Z,99537.44
2022-10-19T00:18:08.061Z,99537.72
2022-10-19T00:20:35.892Z,99537.13
2022-10-19T00:23:02.857Z,99539.97
2022-10-19T00:25:29.825Z,99534.28
2022-10-19T00:27:56.607Z,99524.56
2022-10-19T00:30:23.579Z,99534.41
2022-10-19T00:32:50.329Z,99534.53
2022-10-19T00:35:17.436Z,99533.09
2022-10-19T00:37:44.202Z,99538.78
2022-10-19T00:40:11.508Z,99536.91
2022-10-19T00:42:38.280Z,99520.91
2022-10-19T00:45:09.677Z,99523.75
2022-10-19T00:47:36.436Z,99520.59
2022-10-19T00:50:03.781Z,99522.72
2022-10-19T00:52:30.597Z,99513.25
2022-10-19T00:54:57.793Z,99514.38
2022-10-19T00:57:26.171Z,99505.09
2022-10-19T00:59:53.270Z,99506.97
2022-10-19T01:02:20.105Z,99504.66
2022-10-19T01:04:49.267Z,99503.78
2022-10-19T01:07:16.039Z,99502.38
2022-10-19T01:09:43.095Z,99502.06
2022-10-19T01:12:23.585Z,99512.22
2022-10-19T01:14:56.757Z,99502.06
2022-10-19T01:17:45.612Z,99498.34
2022-10-19T01:20:43.800Z,99496.63
2022-10-19T01:23:22.531Z,99496.75
2022-10-19T01:26:14.411Z,99504.47
2022-10-19T01:28:59.834Z,99500.59
2022-10-19T01:31:45.089Z,99499.75
2022-10-19T01:34:17.754Z,99494.69
2022-10-19T01:36:56.501Z,99491.59
2022-10-19T01:39:32.938Z,99497.16
2022-10-19T01:42:13.662Z,99500.88
2022-10-19T01:44:54.917Z,99500.88
2022-10-19T01:47:27.405Z,99494.44
2022-10-19T01:49:57.389Z,99496.44
2022-10-19T01:52:24.510Z,99497.56
2022-10-19T01:54:55.430Z,99497.41
2022-10-19T01:57:25.747Z,99499.41
2022-10-19T01:59:52.533Z,99493.00
2022-10-19T02:02:20.150Z,99504.00
2022-10-19T02:04:47.238Z,99497.22
2022-10-19T02:07:14.225Z,99497.09
2022-10-19T02:09:40.969Z,99492.09
2022-10-19T02:12:09.461Z,99487.09
2022-10-19T02:14:40.290Z,99488.81
2022-10-19T02:17:13.893Z,99484.78
2022-10-19T02:19:40.752Z,99482.06
2022-10-19T02:22:08.092Z,99489.38
2022-10-19T02:24:34.893Z,99491.06
2022-10-19T02:27:04.916Z,99486.66
2022-10-19T02:29:34.622Z,99487.50
2022-10-19T02:32:01.652Z,99483.19
2022-10-19T02:34:28.445Z,99483.81
2022-10-19T02:36:55.491Z,99484.19
2022-10-19T02:39:22.294Z,99484.06
2022-10-19T02:42:36.181Z,99481.34
2022-10-19T02:45:15.808Z,99478.75
2022-10-19T02:47:49.469Z,99484.06
2022-10-19T02:50:16.212Z,99483.75
2022-10-19T02:52:43.219Z,99484.59
2022-10-19T02:55:10.037Z,99487.44
2022-10-19T02:57:37.363Z,99483.47
2022-10-19T03:00:06.517Z,99476.69
2022-10-19T03:02:33.556Z,99481.16
2022-10-19T03:05:00.478Z,99474.25
2022-10-19T03:07:27.493Z,99471.66
2022-10-19T03:09:54.285Z,99474.25
2022-10-19T03:12:21.332Z,99470.66
2022-10-19T03:14:48.099Z,99471.78
2022-10-19T03:17:15.088Z,99472.22
2022-10-19T03:19:41.851Z,99471.78
2022-10-19T03:22:08.837Z,99485.78
2022-10-19T03:24:35.668Z,99477.91
2022-10-19T03:27:02.681Z,99473.44
2022-10-19T03:29:29.451Z,99485.06
2022-10-19T03:31:56.619Z,99479.47
2022-10-19T03:34:23.418Z,99486.78
2022-10-19T03:36:50.498Z,99483.47
2022-10-19T03:39:17.393Z,99473.44
2022-10-19T03:41:44.555Z,99480.16
2022-10-19T03:44:11.390Z,99474.84
2022-10-19T03:46:38.520Z,99468.69
2022-10-19T03:49:05.360Z,99468.81
2022-10-19T03:51:32.771Z,99472.66
2022-10-19T03:54:01.393Z,99479.94
2022-10-19T03:56:29.135Z,99479.69
2022-10-19T03:58:56.807Z,99475.38
2022-10-19T04:01:28.142Z,99482.94
2022-10-19T04:03:55.929Z,99480.09
2022-10-19T04:06:30.916Z,99477.63
2022-10-19T04:08:57.771Z,99477.63
2022-10-19T04:11:26.138Z,99479.16
2022-10-19T04:13:53.366Z,99481.59
2022-10-19T04:16:20.712Z,99489.75
2022-10-19T04:18:47.787Z,99485.44
2022-10-19T04:21:20.999Z,99487.56
2022-10-19T04:23:47.883Z,99478.69
2022-10-19T04:26:14.951Z,99480.50
2022-10-19T04:28:41.790Z,99478.44
2022-10-19T04:31:08.867Z,99479.53
2022-10-19T04:33:35.697Z,99473.50
2022-10-19T04:36:04.657Z,99473.75
2022-10-19T04:38:31.551Z,99473.25
2022-10-19T04:41:03.373Z,99473.66
2022-10-19T04:43:30.246Z,99479.06
2022-10-19T04:45:57.230Z,99480.94
2022-10-19T04:48:23.993Z,99483.41
2022-10-19T04:50:54.609Z,99472.31
2022-10-19T04:53:21.574Z,99472.41
2022-10-19T04:55:48.542Z,99471.19
2022-10-19T04:58:15.290Z,99468.69
2022-10-19T05:00:42.353Z,99468.22
2022-10-19T05:03:09.334Z,99463.91
2022-10-19T05:05:36.374Z,99457.13
2022-10-19T05:08:03.202Z,99455.56
2022-10-19T05:10:30.238Z,99455.44
2022-10-19T05:12:57.005Z,99455.44
2022-10-19T05:15:24.017Z,99451.50
2022-10-19T05:17:50.761Z,99444.81
2022-10-19T05:20:18.097Z,99439.53
2022-10-19T05:22:44.869Z,99444.09
2022-10-19T05:25:11.897Z,99440.16
2022-10-19T05:27:38.701Z,99446.34
2022-10-19T05:30:06.770Z,99447.06
2022-10-19T05:32:33.639Z,99446.47
2022-10-19T05:35:00.637Z,99439.91
2022-10-19T05:37:27.425Z,99439.19
2022-10-19T05:39:54.815Z,99436.72
2022-10-19T05:42:21.558Z,99445.59
2022-10-19T05:44:48.597Z,99447.56
2022-10-19T05:47:15.413Z,99445.25
2022-10-19T05:49:42.458Z,99452.03
2022-10-19T05:52:09.222Z,99461.41
2022-10-19T05:54:37.029Z,99461.41
2022-10-19T05:57:04.049Z,99462.91
2022-10-19T05:59:31.211Z,99458.47
2022-10-19T06:01:58.008Z,99469.19
2022-10-19T06:04:25.393Z,99460.78
2022-10-19T06:06:52.229Z,99465.63
2022-10-19T06:09:19.422Z,99474.00
2022-10-19T06:11:46.256Z,99483.22
2022-10-19T06:14:14.733Z,99487.19
2022-10-19T06:16:41.624Z,99492.25
2022-10-19T06:19:08.725Z,99491.66
2022-10-19T06:21:35.565Z,99498.06
2022-10-19T06:24:04.423Z,99492.88
2022-10-19T06:26:32.373Z,99496.31
2022-10-19T06:29:00.405Z,99506.56
2022-10-19T06:31:31.320Z,99502.88
2022-10-19T06:33:58.655Z,99511.75
2022-10-19T06:36:28.292Z,99520.75
2022-10-19T06:38:56.596Z,99517.41
2022-10-19T06:41:23.540Z,99509.75
2022-10-19T06:43:54.332Z,99511.03
2022-10-19T06:46:23.304Z,99516.44
2022-10-19T06:48:54.796Z,99517.91
2022-10-19T06:51:21.827Z,99529.63
2022-10-19T06:53:51.682Z,99531.22
2022-10-19T06:56:24.509Z,99530.25
2022-10-19T06:58:51.648Z,99534.94
2022-10-19T07:01:18.482Z,99534.06
2022-10-19T07:03:45.623Z,99539.38
2022-10-19T07:06:12.868Z,99537.50
2022-10-19T07:08:40.576Z,99542.69
2022-10-19T07:11:09.445Z,99543.94
2022-10-19T07:13:36.543Z,99545.53
2022-10-19T07:16:08.284Z,99552.44
2022-10-19T07:18:35.748Z,99553.41
2022-10-19T07:21:03.912Z,99556.13
2022-10-19T07:23:32.071Z,99556.13
2022-10-19T07:26:03.784Z,99556.25
2022-10-19T07:28:31.006Z,99552.69
2022-10-19T07:30:57.835Z,99558.00
2022-10-19T07:33:24.862Z,99556.97
2022-10-19T07:35:58.970Z,99555.41
2022-10-19T07:38:25.920Z,99562.56
2022-10-19T07:40:55.227Z,99562.56
2022-10-19T07:43:22.240Z,99555.28
2022-10-19T07:45:48.979Z,99558.84
2022-10-19T07:48:15.990Z,99558.47
2022-10-19T07:50:47.871Z,99552.94
2022-10-19T07:53:14.887Z,99558.13
2022-10-19T07:55:41.691Z,99553.41
2022-10-19T07:58:08.892Z,99552.31
2022-10-19T08:00:35.714Z,99552.06
2022-10-19T08:05:49.741Z,99564.28
2022-10-19T08:08:16.757Z,99555.53
2022-10-19T08:10:43.609Z,99556.38
2022-10-19T08:13:10.631Z,99566.38
2022-10-19T08:15:37.408Z,99557.88
2022-10-19T08:18:04.472Z,99565.00
2022-10-19T08:20:31.225Z,99558.25
2022-10-19T08:22:59.103Z,99572.28
2022-10-19T08:25:26.103Z,99562.56
2022-10-19T08:27:53.091Z,99561.44
2022-10-19T08:30:19.926Z,99564.03
2022-10-19T08:32:46.998Z,99561.19
2022-10-19T08:35:13.823Z,99565.53
2022-10-19T08:37:45.318Z,99564.88
2022-10-19T08:40:24.360Z,99549.97
2022-10-19T08:43:04.631Z,99562.09
2022-10-19T08:45:38.931Z,99566.72
2022-10-19T08:48:24.231Z,99556.84
2022-10-19T08:50:51.223Z,99562.78
2022-10-19T08:53:32.422Z,99559.81
2022-10-19T08:56:49.215Z,99564.38
2022-10-19T08:59:24.306Z,99552.66
2022-10-19T09:01:55.640Z,99555.25
2022-10-19T09:04:24.306Z,99563.53
2022-10-19T09:07:00.370Z,99563.53
2022-10-19T09:09:28.754Z,99568.97
2022-10-19T09:11:56.097Z,99558.56
2022-10-19T09:14:29.848Z,99565.34
2022-10-19T09:16:59.226Z,99561.00
2022-10-19T09:19:29.987Z,99562.63
2022-10-19T09:21:57.329Z,99573.34
2022-10-19T09:24:43.498Z,99581.25
2022-10-19T09:27:24.754Z,99579.28
2022-10-19T09:29:58.911Z,99578.63
2022-10-19T09:32:28.673Z,99582.34
2022-10-19T09:34:57.877Z,99585.91
2022-10-19T09:37:26.550Z,99588.75
2022-10-19T09:39:55.568Z,99579.97
2022-10-19T09:42:30.598Z,99566.88
2022-10-19T09:44:59.491Z,99581.66
2022-10-19T09:47:29.478Z,99582.66
2022-10-19T09:50:17.609Z,99582.53
2022-10-19T09:52:51.761Z,99594.50
2022-10-19T09:55:36.029Z,99586.69
2022-10-19T09:58:19.460Z,99587.31
2022-10-19T10:00:55.941Z,99592.72
2022-10-19T10:03:22.808Z,99584.59
2022-10-19T10:05:49.878Z,99591.03
2022-10-19T10:08:27.439Z,99592.59
2022-10-19T10:11:10.780Z,99597.78
2022-10-19T10:13:40.019Z,99579.63
2022-10-19T10:16:09.016Z,99597.66
2022-10-19T10:18:50.804Z,99579.16
2022-10-19T10:21:26.311Z,99581.94
2022-10-19T10:24:01.180Z,99590.09
2022-10-19T10:26:28.220Z,99580.81
2022-10-19T10:28:57.863Z,99575.53
2022-10-19T10:31:28.228Z,99577.38
2022-10-19T10:34:10.880Z,99571.34
2022-10-19T10:36:51.609Z,99572.06
2022-10-19T10:39:18.466Z,99578.97
2022-10-19T10:41:45.485Z,99576.03
2022-10-19T10:44:20.989Z,99573.94
2022-10-19T10:46:56.110Z,99575.66
2022-10-19T10:49:24.833Z,99569.09
2022-10-19T10:51:57.029Z,99579.38
2022-10-19T10:54:26.329Z,99580.34
2022-10-19T10:57:14.197Z,99586.31
2022-10-19T11:00:12.141Z,99575.44
2022-10-19T11:02:42.289Z,99586.69
2022-10-19T11:05:25.389Z,99568.03
2022-10-19T11:07:54.914Z,99574.56
2022-10-19T11:10:33.544Z,99569.75
2022-10-19T11:13:15.869Z,99559.88
2022-10-19T11:15:52.628Z,99565.66
2022-10-19T11:18:26.629Z,99557.63
2022-10-19T11:20:59.311Z,99556.44
2022-10-19T11:23:55.567Z,99554.44
2022-10-19T11:26:25.134Z,99554.56
2022-10-19T11:29:03.992Z,99560.97
2022-10-19T11:31:39.458Z,99551.63
2022-10-19T11:34:20.158Z,99545.69
2022-10-19T11:36:51.582Z,99555.16
2022-10-19T11:39:18.595Z,99544.44
2022-10-19T11:41:51.992Z,99553.16
2022-10-19T11:44:31.899Z,99545.78
2022-10-19T11:47:13.751Z,99549.47
2022-10-19T11:49:44.916Z,99549.34
2022-10-19T11:52:21.022Z,99549.09
2022-10-19T11:55:19.991Z,99543.81
2022-10-19T11:58:12.241Z,99535.88
2022-10-19T12:01:00.384Z,99542.16
2022-10-19T12:03:53.319Z,99535.88
2022-10-19T12:06:41.927Z,99533.63
2022-10-19T12:09:30.859Z,99529.81
2022-10-19T12:12:06.690Z,99526.34
2022-10-19T12:14:36.254Z,99523.94
2022-10-19T12:17:09.670Z,99519.41
2022-10-19T12:19:42.894Z,99518.94
2022-10-19T12:22:15.498Z,99522.69
2022-10-19T12:24:42.382Z,99517.41
2022-10-19T12:27:16.569Z,99514.28
2022-10-19T12:29:45.109Z,99517.72
2022-10-19T12:32:14.245Z,99515.88
2022-10-19T12:34:54.522Z,99525.16
2022-10-19T12:37:42.126Z,99524.91
2022-10-19T12:40:32.374Z,99520.19
2022-10-19T12:43:20.382Z,99522.31
2022-10-19T12:45:52.159Z,99522.31
2022-10-19T12:48:20.391Z,99521.16
2022-10-19T12:50:50.300Z,99524.69
2022-10-19T12:53:38.309Z,99523.69
2022-10-19T12:56:22.731Z,99526.88
2022-10-19T12:58:57.470Z,99522.56
2022-10-19T13:01:48.393Z,99521.56
2022-10-19T13:04:20.269Z,99520.13
2022-10-19T13:07:10.925Z,99513.41
2022-10-19T13:09:42.081Z,99522.56
2022-10-19T13:12:19.271Z,99521.97
2022-10-19T13:14:51.205Z,99525.69
2022-10-19T13:17:46.553Z,99526.78
2022-10-19T13:20:13.695Z,99526.66
2022-10-19T13:22:41.017Z,99529.34
2022-10-19T13:25:17.340Z,99530.19
2022-10-19T13:27:44.837Z,99526.06
2022-10-19T13:30:37.176Z,99530.78
2022-10-19T13:33:28.458Z,99534.22
2022-10-19T13:35:58.613Z,99528.78
2022-10-19T13:38:29.136Z,99535.50
2022-10-19T13:40:56.233Z,99534.22
2022-10-19T13:43:38.309Z,99530.66
2022-10-19T13:46:24.153Z,99534.81
2022-10-19T13:49:12.532Z,99535.69
2022-10-19T13:51:51.612Z,99539.53
2022-10-19T13:54:27.461Z,99535.38
2022-10-19T13:57:11.185Z,99532.06
2022-10-19T14:00:04.991Z,99535.38
2022-10-19T14:02:45.942Z,99533.38
2022-10-19T14:05:47.513Z,99538.22
2022-10-19T14:08:32.869Z,99535.38
2022-10-19T14:11:02.246Z,99534.47
2022-10-19T14:13:29.421Z,99535.44
2022-10-19T14:15:57.595Z,99539.41
2022-10-19T14:18:27.131Z,99528.19
2022-10-19T14:21:04.825Z,99528.59
2022-10-19T14:23:33.483Z,99544.75
2022-10-19T14:26:03.395Z,99538.34
2022-10-19T14:28:30.682Z,99531.31
2022-10-19T14:31:01.862Z,99524.88
2022-10-19T14:33:29.983Z,99530.13
2022-10-19T14:35:56.796Z,99524.56
2022-10-19T14:38:38.587Z,99532.72
2022-10-19T14:41:06.275Z,99535.28
2022-10-19T14:43:33.922Z,99536.69
2022-10-19T14:46:06.774Z,99528.53
2022-10-19T14:48:41.183Z,99533.97
2022-10-19T14:51:16.129Z,99528.94
2022-10-19T14:53:44.789Z,99536.69
2022-10-19T14:56:14.590Z,99533.09
2022-10-19T14:58:44.997Z,99533.22
2022-10-19T15:01:12.228Z,99531.78
2022-10-19T15:03:43.532Z,99531.78
2022-10-19T15:06:18.002Z,99534.63
2022-10-19T15:09:24.769Z,99533.63
2022-10-19T15:12:09.005Z,99527.88
2022-10-19T15:14:37.143Z,99530.41
2022-10-19T15:17:05.821Z,99536.00
2022-10-19T15:19:34.026Z,99536.28
2022-10-19T15:22:13.508Z,99539.97
2022-10-19T15:25:00.721Z,99540.94
2022-10-19T15:27:40.279Z,99544.53
2022-10-19T15:30:21.127Z,99552.22
2022-10-19T15:33:14.409Z,99550.59
2022-10-19T15:35:44.126Z,99547.63
2022-10-19T15:38:14.589Z,99547.75
2022-10-19T15:40:42.751Z,99548.91
2022-10-19T15:43:34.274Z,99550.88
2022-10-19T15:46:01.525Z,99546.56
2022-10-19T15:48:40.382Z,99550.25
2022-10-19T15:51:25.865Z,99544.09
2022-10-19T15:53:59.701Z,99547.69
2022-10-19T15:56:28.106Z,99545.69
2022-10-19T15:58:56.927Z,99553.22
2022-10-19T16:01:26.226Z,99556.84
2022-10-19T16:03:53.097Z,99555.22
2022-10-19T16:06:21.257Z,99561.78
2022-10-19T16:08:48.129Z,99559.53
2022-10-19T16:11:16.480Z,99569.53
2022-10-19T16:13:43.320Z,99563.34
2022-10-19T16:16:12.876Z,99569.06
2022-10-19T16:18:39.713Z,99565.72
2022-10-19T16:21:06.785Z,99567.81
2022-10-19T16:23:39.318Z,99576.34
2022-10-19T16:26:09.036Z,99584.63
2022-10-19T16:28:35.808Z,99577.59
2022-10-19T16:31:02.860Z,99585.72
2022-10-19T16:33:29.670Z,99584.28
2022-10-19T16:35:56.716Z,99587.22
2022-10-19T16:38:23.514Z,99592.66
2022-10-19T16:40:50.514Z,99591.28
2022-10-19T16:43:17.311Z,99601.28
2022-10-19T16:45:44.414Z,99593.16
2022-10-19T16:48:14.292Z,99604.00
2022-10-19T16:50:41.299Z,99613.13
2022-10-19T16:53:10.422Z,99614.34
2022-10-19T16:55:37.957Z,99610.16
2022-10-19T16:58:04.754Z,99621.63
2022-10-19T17:00:31.882Z,99605.13
2022-10-19T17:02:58.687Z,99614.59
2022-10-19T17:05:25.760Z,99613.75
2022-10-19T17:07:52.732Z,99618.56
2022-10-19T17:10:19.813Z,99626.59
2022-10-19T17:12:46.638Z,99616.09
2022-10-19T17:18:00.536Z,99622.25
2022-10-19T17:20:27.572Z,99632.47
2022-10-19T17:22:54.351Z,99638.63
2022-10-19T17:25:21.394Z,99636.19
2022-10-19T17:27:51.663Z,99636.19
2022-10-19T17:30:18.833Z,99631.38
2022-10-19T17:32:45.543Z,99636.56
2022-10-19T17:35:12.555Z,99641.72
2022-10-19T17:37:39.340Z,99647.53
2022-10-19T17:40:07.106Z,99649.59
2022-10-19T17:42:36.642Z,99653.69
2022-10-19T17:45:03.892Z,99651.31
2022-10-19T17:47:30.744Z,99653.28
2022-10-19T17:49:57.775Z,99655.88
2022-10-19T17:52:24.620Z,99659.84
2022-10-19T17:55:11.140Z,99660.56
2022-10-19T17:57:38.616Z,99659.44
2022-10-19T18:00:07.184Z,99664.38
2022-10-19T18:02:35.508Z,99665.34
2022-10-19T18:05:02.651Z,99675.56
2022-10-19T18:07:29.455Z,99672.22
2022-10-19T18:09:56.544Z,99665.69
2022-10-19T18:12:23.333Z,99669.63
2022-10-19T18:14:50.454Z,99669.88
2022-10-19T18:17:17.238Z,99665.41
2022-10-19T18:19:44.494Z,99668.22
2022-10-19T18:22:11.326Z,99677.69
2022-10-19T18:24:38.466Z,99667.81
2022-10-19T18:27:05.297Z,99678.25
2022-10-19T18:29:32.349Z,99674.59
2022-10-19T18:31:59.200Z,99679.03
2022-10-19T18:34:26.429Z,99681.97
2022-10-19T18:36:54.168Z,99673.09
2022-10-19T18:39:21.464Z,99675.03
2022-10-19T18:41:54.817Z,99680.19
2022-10-19T18:44:26.357Z,99680.28
2022-10-19T18:46:55.185Z,99674.88
2022-10-19T18:49:22.307Z,99670.22
2022-10-19T18:51:54.026Z,99680.66
2022-10-19T18:54:22.868Z,99671.53
2022-10-19T18:56:49.647Z,99675.13
2022-10-19T18:59:16.993Z,99673.16
2022-10-19T19:01:43.961Z,99685.84
2022-10-19T19:04:11.071Z,99683.38
2022-10-19T19:06:38.213Z,99685.16
2022-10-19T19:09:09.658Z,99689.56
2022-10-19T19:11:38.285Z,99694.03
2022-10-19T19:14:07.639Z,99695.50
2022-10-19T19:16:35.972Z,99693.81
2022-10-19T19:19:03.212Z,99701.03
2022-10-19T19:21:30.790Z,99685.69
2022-10-19T19:23:59.738Z,99689.47
2022-10-19T19:26:27.964Z,99693.06
2022-10-19T19:28:55.152Z,99690.34
2022-10-19T19:31:22.053Z,99695.88
2022-10-19T19:33:49.134Z,99701.75
2022-10-19T19:36:16.558Z,99710.72
2022-10-19T19:38:43.813Z,99705.19
2022-10-19T19:41:14.425Z,99702.53
2022-10-19T19:43:42.467Z,99703.81
2022-10-19T19:46:14.679Z,99712.50
2022-10-19T19:48:42.432Z,99702.66
2022-10-19T19:51:19.717Z,99703.75
2022-10-19T19:53:47.189Z,99706.34
2022-10-19T19:56:14.373Z,99710.78
2022-10-19T19:58:41.593Z,99715.44
2022-10-19T20:01:16.554Z,99715.13
2022-10-19T20:03:43.576Z,99718.84
2022-10-19T20:06:10.598Z,99717.31
2022-10-19T20:08:37.891Z,99720.13
2022-10-19T20:11:07.044Z,99729.03
2022-10-19T20:13:35.364Z,99725.53
2022-10-19T20:16:13.120Z,99719.28
2022-10-19T20:18:51.010Z,99727.41
2022-10-19T20:21:18.310Z,99721.13
2022-10-19T20:23:46.413Z,99723.09
2022-10-19T20:26:21.074Z,99726.44
2022-10-19T20:28:48.208Z,99727.88
2022-10-19T20:31:15.134Z,99730.69
2022-10-19T20:33:43.048Z,99729.34
2022-10-19T20:36:11.988Z,99735.00
2022-10-19T20:38:39.412Z,99733.38
2022-10-19T20:41:08.257Z,99724.75
2022-10-19T20:43:36.044Z,99728.19
2022-10-19T20:46:21.021Z,99728.41
2022-10-19T20:48:48.144Z,99728.41
2022-10-19T20:51:16.319Z,99738.06
2022-10-19T20:53:49.258Z,99733.28
2022-10-19T20:56:21.745Z,99739.22
2022-10-19T20:58:56.049Z,99735.75
2022-10-19T21:01:23.388Z,99736.09
2022-10-19T21:03:55.089Z,99736.09
2022-10-19T21:06:23.216Z,99742.56
2022-10-19T21:08:50.528Z,99742.66
2022-10-19T21:11:18.178Z,99741.16
2022-10-19T21:13:45.429Z,99744.22
2022-10-19T21:16:19.472Z,99745.69
2022-10-19T21:18:47.491Z,99741.81
2022-10-19T21:21:18.629Z,99742.13
2022-10-19T21:23:47.518Z,99742.91
2022-10-19T21:26:14.460Z,99747.00
2022-10-19T21:28:48.321Z,99749.69
2022-10-19T21:31:15.287Z,99745.06
2022-10-19T21:33:42.363Z,99742.34
2022-10-19T21:36:09.272Z,99741.66
2022-10-19T21:38:36.358Z,99744.06
2022-10-19T21:41:05.329Z,99742.88
2022-10-19T21:43:32.380Z,99737.56
2022-10-19T21:46:01.888Z,99735.19
2022-10-19T21:48:29.573Z,99747.63
2022-10-19T21:50:56.392Z,99738.75
2022-10-19T21:53:23.695Z,99747.19
2022-10-19T21:55:51.271Z,99741.22
2022-10-19T21:58:18.278Z,99749.44
2022-10-19T22:00:45.115Z,99747.50
2022-10-19T22:03:12.113Z,99741.78
2022-10-19T22:05:39.092Z,99742.28
2022-10-19T22:08:06.161Z,99743.59
2022-10-19T22:10:32.964Z,99744.34
2022-10-19T22:12:59.922Z,99744.75
2022-10-19T22:15:26.717Z,99739.44
2022-10-19T22:17:53.721Z,99744.00
2022-10-19T22:20:20.468Z,99744.31
2022-10-19T22:22:50.263Z,99743.75
2022-10-19T22:25:19.541Z,99747.69
2022-10-19T22:27:46.639Z,99747.09
2022-10-19T22:30:13.452Z,99750.25
2022-10-19T22:32:40.496Z,99755.00
2022-10-19T22:35:07.491Z,99754.09
2022-10-19T22:37:34.679Z,99755.09
2022-10-19T22:40:01.587Z,99749.50
2022-10-19T22:42:28.590Z,99742.84
2022-10-19T22:44:55.381Z,99749.22
2022-10-19T22:47:22.212Z,99751.84
2022-10-19T22:49:49.364Z,99750.50
2022-10-19T22:52:16.721Z,99758.78
2022-10-19T22:54:43.752Z,99757.53
2022-10-19T22:57:11.833Z,99748.34
2022-10-19T22:59:38.863Z,99754.56
2022-10-19T23:02:05.665Z,99755.53
2022-10-19T23:04:32.700Z,99753.91
2022-10-19T23:06:59.501Z,99759.72
2022-10-19T23:09:26.531Z,99753.16
2022-10-19T23:11:53.287Z,99761.34
2022-10-19T23:14:20.326Z,99764.25
2022-10-19T23:16:47.356Z,99762.03
2022-10-19T23:19:14.366Z,99762.72
2022-10-19T23:21:41.126Z,99756.94
2022-10-19T23:24:08.122Z,99757.31
2022-10-19T23:26:34.941Z,99763.78
2022-10-19T23:29:01.975Z,99772.66
2022-10-19T23:31:30.329Z,99776.03
2022-10-19T23:33:57.370Z,99774.31
2022-10-19T23:36:28.537Z,99779.41
2022-10-19T23:38:55.984Z,99779.03
2022-10-19T23:41:23.085Z,99775.84
2022-10-19T23:43:50.221Z,99774.03
2022-10-19T23:46:17.252Z,99771.44
2022-10-19T23:48:44.256Z,99773.25
2022-10-19T23:51:12.892Z,99780.88
2022-10-19T23:53:41.467Z,99774.81
2022-10-19T23:56:14.109Z,99775.38
2022-10-19T23:58:41.244Z,99772.19
